sensor_id;sensor_type;location;lat;lon;timestamp;temperature;humidity
12843;DHT22;35724;49.324;-123.118;2023-02-22T00:02:01;26.10;32.90
12843;DHT22;35724;49.324;-123.118;2023-02-22T00:12:29;26.10;33.20
12843;DHT22;35724;49.324;-123.118;2023-02-22T00:22:38;26.10;33.90
12843;DHT22;35724;49.324;-123.118;2023-02-22T00:32:46;26.00;33.20
12843;DHT22;35724;49.324;-123.118;2023-02-22T00:42:55;25.90;33.50
12843;DHT22;35724;49.324;-123.118;2023-02-22T00:53:03;25.90;33.90
12843;DHT22;35724;49.324;-123.118;2023-02-22T01:03:18;25.90;33.90
12843;DHT22;35724;49.324;-123.118;2023-02-22T01:13:26;25.80;33.90
12843;DHT22;35724;49.324;-123.118;2023-02-22T01:23:37;25.70;33.90
12843;DHT22;35724;49.324;-123.118;2023-02-22T01:33:44;25.70;33.80
12843;DHT22;35724;49.324;-123.118;2023-02-22T01:43:52;25.60;33.90
12843;DHT22;35724;49.324;-123.118;2023-02-22T01:54:02;25.50;34.10
12843;DHT22;35724;49.324;-123.118;2023-02-22T02:04:19;25.40;34.10
12843;DHT22;35724;49.324;-123.118;2023-02-22T02:14:32;25.30;33.90
12843;DHT22;35724;49.324;-123.118;2023-02-22T02:25:14;25.30;34.10
12843;DHT22;35724;49.324;-123.118;2023-02-22T02:35:34;25.30;34.10
12843;DHT22;35724;49.324;-123.118;2023-02-22T02:45:48;25.20;34.10
12843;DHT22;35724;49.324;-123.118;2023-02-22T02:56:00;25.10;34.00
12843;DHT22;35724;49.324;-123.118;2023-02-22T03:06:35;25.10;34.00
12843;DHT22;35724;49.324;-123.118;2023-02-22T03:16:51;25.00;34.20
12843;DHT22;35724;49.324;-123.118;2023-02-22T03:27:02;25.00;34.20
12843;DHT22;35724;49.324;-123.118;2023-02-22T03:37:23;24.90;34.20
12843;DHT22;35724;49.324;-123.118;2023-02-22T03:47:39;24.90;34.60
12843;DHT22;35724;49.324;-123.118;2023-02-22T03:57:51;25.10;35.70
12843;DHT22;35724;49.324;-123.118;2023-02-22T04:08:03;25.30;35.70
12843;DHT22;35724;49.324;-123.118;2023-02-22T04:18:12;25.40;36.00
12843;DHT22;35724;49.324;-123.118;2023-02-22T04:28:22;25.60;39.10
12843;DHT22;35724;49.324;-123.118;2023-02-22T04:38:41;25.70;39.60
12843;DHT22;35724;49.324;-123.118;2023-02-22T04:48:48;25.90;40.40
12843;DHT22;35724;49.324;-123.118;2023-02-22T04:59:00;26.00;40.40
12843;DHT22;35724;49.324;-123.118;2023-02-22T05:09:07;26.00;40.90
12843;DHT22;35724;49.324;-123.118;2023-02-22T05:19:25;26.10;41.30
12843;DHT22;35724;49.324;-123.118;2023-02-22T05:29:32;26.20;41.40
12843;DHT22;35724;49.324;-123.118;2023-02-22T05:39:41;26.20;41.50
12843;DHT22;35724;49.324;-123.118;2023-02-22T05:49:50;26.30;41.20
12843;DHT22;35724;49.324;-123.118;2023-02-22T06:00:01;26.50;41.20
12843;DHT22;35724;49.324;-123.118;2023-02-22T06:10:16;26.60;41.30
12843;DHT22;35724;49.324;-123.118;2023-02-22T06:20:27;26.70;41.30
12843;DHT22;35724;49.324;-123.118;2023-02-22T06:30:34;26.80;41.60
12843;DHT22;35724;49.324;-123.118;2023-02-22T06:40:44;26.90;41.30
12843;DHT22;35724;49.324;-123.118;2023-02-22T06:50:51;27.00;41.40
12843;DHT22;35724;49.324;-123.118;2023-02-22T07:01:00;27.00;41.30
12843;DHT22;35724;49.324;-123.118;2023-02-22T07:11:07;27.10;41.30
12843;DHT22;35724;49.324;-123.118;2023-02-22T07:21:16;27.20;41.20
12843;DHT22;35724;49.324;-123.118;2023-02-22T07:31:24;27.10;40.40
12843;DHT22;35724;49.324;-123.118;2023-02-22T07:41:34;27.20;40.00
12843;DHT22;35724;49.324;-123.118;2023-02-22T07:51:50;27.10;39.50
12843;DHT22;35724;49.324;-123.118;2023-02-22T08:01:58;27.10;39.20
12843;DHT22;35724;49.324;-123.118;2023-02-22T08:12:07;27.10;38.90
12843;DHT22;35724;49.324;-123.118;2023-02-22T08:22:15;27.20;38.80
12843;DHT22;35724;49.324;-123.118;2023-02-22T08:32:24;27.20;38.30
12843;DHT22;35724;49.324;-123.118;2023-02-22T08:42:34;27.20;37.90
12843;DHT22;35724;49.324;-123.118;2023-02-22T08:52:41;27.20;37.50
12843;DHT22;35724;49.324;-123.118;2023-02-22T09:02:50;27.20;37.10
12843;DHT22;35724;49.324;-123.118;2023-02-22T09:12:58;27.30;36.80
12843;DHT22;35724;49.324;-123.118;2023-02-22T09:23:07;27.30;36.50
12843;DHT22;35724;49.324;-123.118;2023-02-22T09:33:16;27.30;36.30
12843;DHT22;35724;49.324;-123.118;2023-02-22T09:43:36;27.30;36.40
12843;DHT22;35724;49.324;-123.118;2023-02-22T09:53:46;27.30;35.60
12843;DHT22;35724;49.324;-123.118;2023-02-22T10:04:00;27.30;35.30
12843;DHT22;35724;49.324;-123.118;2023-02-22T10:25:03;27.30;35.00
12843;DHT22;35724;49.324;-123.118;2023-02-22T10:35:20;27.30;34.80
12843;DHT22;35724;49.324;-123.118;2023-02-22T10:45:31;27.30;34.60
12843;DHT22;35724;49.324;-123.118;2023-02-22T10:56:05;27.30;34.20
12843;DHT22;35724;49.324;-123.118;2023-02-22T11:06:19;27.40;34.30
12843;DHT22;35724;49.324;-123.118;2023-02-22T11:16:29;27.30;34.20
12843;DHT22;35724;49.324;-123.118;2023-02-22T11:26:43;27.40;34.20
12843;DHT22;35724;49.324;-123.118;2023-02-22T11:36:53;27.30;34.00
12843;DHT22;35724;49.324;-123.118;2023-02-22T11:47:02;27.30;34.00
12843;DHT22;35724;49.324;-123.118;2023-02-22T11:57:22;27.40;33.80
12843;DHT22;35724;49.324;-123.118;2023-02-22T12:07:45;27.40;33.50
12843;DHT22;35724;49.324;-123.118;2023-02-22T12:18:01;27.40;33.30
12843;DHT22;35724;49.324;-123.118;2023-02-22T12:28:17;27.40;33.20
12843;DHT22;35724;49.324;-123.118;2023-02-22T12:38:31;27.50;33.20
12843;DHT22;35724;49.324;-123.118;2023-02-22T12:48:47;27.50;33.20
12843;DHT22;35724;49.324;-123.118;2023-02-22T12:59:02;27.50;33.00
12843;DHT22;35724;49.324;-123.118;2023-02-22T13:19:51;27.50;32.50
12843;DHT22;35724;49.324;-123.118;2023-02-22T13:30:02;27.50;32.20
12843;DHT22;35724;49.324;-123.118;2023-02-22T13:40:29;27.50;31.90
12843;DHT22;35724;49.324;-123.118;2023-02-22T13:51:02;27.50;31.90
12843;DHT22;35724;49.324;-123.118;2023-02-22T14:01:38;27.60;31.80
12843;DHT22;35724;49.324;-123.118;2023-02-22T14:11:49;27.60;31.80
12843;DHT22;35724;49.324;-123.118;2023-02-22T14:22:03;27.60;31.60
12843;DHT22;35724;49.324;-123.118;2023-02-22T14:32:15;27.60;31.60
12843;DHT22;35724;49.324;-123.118;2023-02-22T14:42:29;27.60;32.20
12843;DHT22;35724;49.324;-123.118;2023-02-22T14:52:39;27.60;31.40
12843;DHT22;35724;49.324;-123.118;2023-02-22T15:02:51;27.60;31.40
12843;DHT22;35724;49.324;-123.118;2023-02-22T15:13:04;27.60;31.20
12843;DHT22;35724;49.324;-123.118;2023-02-22T15:23:15;27.70;31.20
12843;DHT22;35724;49.324;-123.118;2023-02-22T15:33:28;27.50;26.50
12843;DHT22;35724;49.324;-123.118;2023-02-22T15:43:42;27.30;27.50
12843;DHT22;35724;49.324;-123.118;2023-02-22T15:53:50;27.30;27.60
12843;DHT22;35724;49.324;-123.118;2023-02-22T16:03:58;27.20;28.80
12843;DHT22;35724;49.324;-123.118;2023-02-22T16:14:24;27.20;29.10
12843;DHT22;35724;49.324;-123.118;2023-02-22T16:24:32;27.20;29.50
12843;DHT22;35724;49.324;-123.118;2023-02-22T16:34:41;27.20;29.90
12843;DHT22;35724;49.324;-123.118;2023-02-22T16:44:49;27.30;30.00
12843;DHT22;35724;49.324;-123.118;2023-02-22T16:54:58;26.90;25.40
12843;DHT22;35724;49.324;-123.118;2023-02-22T17:05:07;26.60;23.30
12843;DHT22;35724;49.324;-123.118;2023-02-22T17:15:24;26.50;23.90
12843;DHT22;35724;49.324;-123.118;2023-02-22T17:25:35;26.60;23.80
12843;DHT22;35724;49.324;-123.118;2023-02-22T17:35:46;26.70;24.90
12843;DHT22;35724;49.324;-123.118;2023-02-22T17:45:54;26.80;24.40
12843;DHT22;35724;49.324;-123.118;2023-02-22T17:56:17;26.70;21.80
12843;DHT22;35724;49.324;-123.118;2023-02-22T18:06:37;26.50;21.70
12843;DHT22;35724;49.324;-123.118;2023-02-22T18:16:49;26.50;21.60
12843;DHT22;35724;49.324;-123.118;2023-02-22T18:27:00;26.40;20.80
12843;DHT22;35724;49.324;-123.118;2023-02-22T18:37:11;26.30;20.40
12843;DHT22;35724;49.324;-123.118;2023-02-22T18:47:24;26.20;20.00
12843;DHT22;35724;49.324;-123.118;2023-02-22T18:57:33;26.20;20.80
12843;DHT22;35724;49.324;-123.118;2023-02-22T19:07:43;26.20;21.20
12843;DHT22;35724;49.324;-123.118;2023-02-22T19:17:52;26.00;20.60
12843;DHT22;35724;49.324;-123.118;2023-02-22T19:27:59;25.90;20.20
12843;DHT22;35724;49.324;-123.118;2023-02-22T19:38:08;25.80;22.70
12843;DHT22;35724;49.324;-123.118;2023-02-22T19:48:15;25.90;24.90
12843;DHT22;35724;49.324;-123.118;2023-02-22T19:58:24;26.00;25.50
12843;DHT22;35724;49.324;-123.118;2023-02-22T20:08:31;26.00;25.60
12843;DHT22;35724;49.324;-123.118;2023-02-22T20:18:39;25.30;22.10
12843;DHT22;35724;49.324;-123.118;2023-02-22T20:28:47;24.90;23.60
12843;DHT22;35724;49.324;-123.118;2023-02-22T20:38:57;24.50;22.50
12843;DHT22;35724;49.324;-123.118;2023-02-22T20:49:06;24.20;22.40
12843;DHT22;35724;49.324;-123.118;2023-02-22T20:59:17;24.10;22.90
12843;DHT22;35724;49.324;-123.118;2023-02-22T21:09:24;24.20;23.20
12843;DHT22;35724;49.324;-123.118;2023-02-22T21:19:33;24.60;23.60
12843;DHT22;35724;49.324;-123.118;2023-02-22T21:29:39;25.00;23.80
12843;DHT22;35724;49.324;-123.118;2023-02-22T21:39:48;25.20;23.10
12843;DHT22;35724;49.324;-123.118;2023-02-22T21:49:55;25.30;22.80
12843;DHT22;35724;49.324;-123.118;2023-02-22T22:00:04;25.50;23.00
12843;DHT22;35724;49.324;-123.118;2023-02-22T22:10:20;25.60;24.60
12843;DHT22;35724;49.324;-123.118;2023-02-22T22:20:32;25.50;24.40
12843;DHT22;35724;49.324;-123.118;2023-02-22T22:30:42;25.30;25.70
12843;DHT22;35724;49.324;-123.118;2023-02-22T22:40:50;25.30;26.40
12843;DHT22;35724;49.324;-123.118;2023-02-22T22:51:02;25.20;25.70
12843;DHT22;35724;49.324;-123.118;2023-02-22T23:01:15;25.20;24.40
12843;DHT22;35724;49.324;-123.118;2023-02-22T23:11:23;25.10;24.70
12843;DHT22;35724;49.324;-123.118;2023-02-22T23:21:31;25.30;24.70
12843;DHT22;35724;49.324;-123.118;2023-02-22T23:31:39;25.30;23.70
12843;DHT22;35724;49.324;-123.118;2023-02-22T23:41:49;25.10;23.10
12843;DHT22;35724;49.324;-123.118;2023-02-22T23:51:59;25.10;22.80
